createdAt,value
2018-11-06T00:00:29.792Z,15.17
2018-11-06T00:03:03.436Z,14.87
2018-11-06T00:05:31.994Z,15.57
2018-11-06T00:08:00.508Z,16.43
2018-11-06T00:10:29.077Z,16.50
2018-11-06T00:12:57.635Z,15.23
2018-11-06T00:15:26.233Z,15.87
2018-11-06T00:17:54.755Z,14.77
2018-11-06T00:20:23.306Z,15.30
2018-11-06T00:22:51.820Z,16.70
2018-11-06T00:25:20.345Z,16.10
2018-11-06T00:27:49.505Z,16.83
2018-11-06T00:30:18.451Z,16.30
2018-11-06T00:32:46.932Z,16.73
2018-11-06T00:35:15.934Z,17.97
2018-11-06T00:37:45.367Z,16.90
2018-11-06T00:40:14.116Z,16.70
2018-11-06T00:42:42.567Z,17.03
2018-11-06T00:45:14.618Z,15.60
2018-11-06T00:47:43.241Z,16.93
2018-11-06T00:50:12.540Z,16.77
2018-11-06T00:52:42.240Z,16.00
2018-11-06T00:55:10.955Z,14.93
2018-11-06T00:57:41.195Z,16.70
2018-11-06T01:00:13.801Z,17.60
2018-11-06T01:02:42.434Z,17.50
2018-11-06T01:05:12.103Z,17.63
2018-11-06T01:07:40.822Z,16.00
2018-11-06T01:10:10.265Z,16.23
2018-11-06T01:12:39.176Z,15.50
2018-11-06T01:15:10.036Z,15.47
2018-11-06T01:17:38.618Z,15.77
2018-11-06T01:20:09.734Z,16.93
2018-11-06T01:22:38.388Z,16.23
2018-11-06T01:25:07.701Z,16.53
2018-11-06T01:27:36.255Z,16.33
2018-11-06T01:30:06.314Z,15.93
2018-11-06T01:32:34.823Z,16.07
2018-11-06T01:35:03.372Z,15.93
2018-11-06T01:37:32.016Z,17.20
2018-11-06T01:40:00.666Z,16.97
2018-11-06T01:42:29.213Z,17.30
2018-11-06T01:44:57.678Z,17.17
2018-11-06T01:47:26.209Z,16.83
2018-11-06T01:49:54.742Z,17.77
2018-11-06T01:52:23.219Z,16.97
2018-11-06T01:54:51.759Z,16.53
2018-11-06T01:57:20.401Z,17.37
2018-11-06T01:59:48.878Z,16.83
2018-11-06T02:02:17.415Z,16.83
2018-11-06T02:04:45.951Z,16.33
2018-11-06T02:07:14.519Z,16.30
2018-11-06T02:09:43.122Z,17.60
2018-11-06T02:12:11.623Z,17.50
2018-11-06T02:14:40.116Z,15.73
2018-11-06T02:17:08.699Z,17.63
2018-11-06T02:19:37.438Z,19.73
2018-11-06T02:22:06.003Z,17.67
2018-11-06T02:24:34.579Z,18.20
2018-11-06T02:27:03.089Z,17.93
2018-11-06T02:29:31.620Z,17.90
2018-11-06T02:32:00.122Z,17.40
2018-11-06T02:34:28.716Z,17.70
2018-11-06T02:36:57.261Z,17.93
2018-11-06T02:39:25.856Z,18.53
2018-11-06T02:41:54.469Z,18.27
2018-11-06T02:44:23.069Z,17.23
2018-11-06T02:46:51.624Z,17.80
2018-11-06T02:49:20.226Z,19.07
2018-11-06T02:51:48.769Z,17.23
2018-11-06T02:54:17.235Z,18.87
2018-11-06T02:56:45.794Z,17.80
2018-11-06T02:59:14.339Z,18.57
2018-11-06T03:01:42.875Z,20.00
2018-11-06T03:04:11.385Z,17.70
2018-11-06T03:06:39.916Z,19.30
2018-11-06T03:09:08.650Z,17.83
2018-11-06T03:11:37.590Z,19.03
2018-11-06T03:14:06.132Z,17.97
2018-11-06T03:16:34.671Z,18.07
2018-11-06T03:19:03.277Z,17.90
2018-11-06T03:21:31.875Z,18.00
2018-11-06T03:24:00.338Z,16.33
2018-11-06T03:26:28.875Z,15.87
2018-11-06T03:28:57.402Z,18.03
2018-11-06T03:31:25.931Z,17.73
2018-11-06T03:33:54.397Z,17.27
2018-11-06T03:36:22.933Z,19.10
2018-11-06T03:38:51.400Z,17.03
2018-11-06T03:41:19.924Z,16.60
2018-11-06T03:43:48.524Z,17.70
2018-11-06T03:46:17.042Z,17.30
2018-11-06T03:48:45.522Z,17.13
2018-11-06T03:51:14.002Z,17.20
2018-11-06T03:53:42.515Z,16.10
2018-11-06T03:56:11.001Z,17.13
2018-11-06T03:58:39.468Z,17.00
2018-11-06T04:01:08.160Z,16.77
2018-11-06T04:03:36.783Z,17.63
2018-11-06T04:06:05.575Z,17.90
2018-11-06T04:08:34.313Z,18.67
2018-11-06T04:11:02.952Z,16.10
2018-11-06T04:13:31.604Z,16.87
2018-11-06T04:16:00.300Z,16.10
2018-11-06T04:18:28.983Z,17.17
2018-11-06T04:20:57.579Z,16.33
2018-11-06T04:23:26.245Z,16.60
2018-11-06T04:25:54.929Z,16.60
2018-11-06T04:28:23.629Z,15.20
2018-11-06T04:30:52.446Z,16.50
2018-11-06T04:33:21.051Z,16.87
2018-11-06T04:35:49.639Z,17.67
2018-11-06T04:38:18.261Z,16.90
2018-11-06T04:40:46.970Z,17.63
2018-11-06T04:43:15.549Z,16.27
2018-11-06T04:45:44.293Z,16.40
2018-11-06T04:48:12.907Z,17.17
2018-11-06T04:50:41.532Z,15.33
2018-11-06T04:53:10.002Z,16.13
2018-11-06T04:55:38.631Z,17.00
2018-11-06T04:58:07.137Z,15.63
2018-11-06T05:00:35.720Z,15.53
2018-11-06T05:03:04.237Z,17.23
2018-11-06T05:05:32.812Z,16.53
2018-11-06T05:08:01.506Z,16.50
2018-11-06T05:10:30.127Z,17.03
2018-11-06T05:12:58.625Z,15.80
2018-11-06T05:15:27.235Z,18.00
2018-11-06T05:17:55.775Z,17.40
2018-11-06T05:20:24.398Z,16.43
2018-11-06T05:22:53.035Z,16.30
2018-11-06T05:25:21.673Z,16.00
2018-11-06T05:27:50.304Z,15.57
2018-11-06T05:30:18.914Z,15.03
2018-11-06T05:32:47.625Z,17.27
2018-11-06T05:35:16.256Z,17.77
2018-11-06T05:37:44.905Z,16.53
2018-11-06T05:40:24.355Z,16.20
2018-11-06T05:42:52.921Z,15.83
2018-11-06T05:45:21.497Z,15.77
2018-11-06T05:47:50.027Z,16.73
2018-11-06T05:50:18.590Z,16.63
2018-11-06T05:52:47.200Z,16.43
2018-11-06T05:55:15.935Z,15.53
2018-11-06T05:57:44.582Z,16.03
2018-11-06T06:00:13.321Z,16.07
2018-11-06T06:02:41.931Z,16.47
2018-11-06T06:05:10.446Z,15.20
2018-11-06T06:07:39.014Z,14.80
2018-11-06T06:10:07.597Z,15.67
2018-11-06T06:12:36.556Z,16.63
2018-11-06T06:15:05.276Z,16.93
2018-11-06T06:17:33.969Z,15.37
2018-11-06T06:20:02.603Z,14.03
2018-11-06T06:22:31.242Z,15.00
2018-11-06T06:24:59.735Z,15.27
2018-11-06T06:27:28.444Z,14.33
2018-11-06T06:29:56.996Z,15.23
2018-11-06T06:32:25.626Z,14.30
2018-11-06T06:34:54.147Z,15.40
2018-11-06T06:37:22.822Z,14.73
2018-11-06T06:39:51.535Z,15.20
2018-11-06T06:42:20.123Z,15.17
2018-11-06T06:44:48.662Z,13.77
2018-11-06T06:47:17.212Z,13.77
2018-11-06T06:49:45.860Z,15.40
2018-11-06T06:52:14.601Z,14.30
2018-11-06T06:54:43.586Z,14.90
2018-11-06T06:57:12.299Z,16.20
2018-11-06T06:59:41.232Z,14.50
2018-11-06T07:02:09.887Z,14.50
2018-11-06T07:04:38.524Z,15.33
2018-11-06T07:07:07.145Z,16.50
2018-11-06T07:09:36.435Z,16.50
2018-11-06T07:12:05.085Z,15.37
2018-11-06T07:14:34.023Z,16.73
2018-11-06T07:17:02.726Z,16.47
2018-11-06T07:19:31.580Z,15.23
2018-11-06T07:22:00.187Z,15.30
2018-11-06T07:24:28.741Z,14.53
2018-11-06T07:26:57.282Z,14.30
2018-11-06T07:29:25.894Z,14.03
2018-11-06T07:31:54.482Z,13.53
2018-11-06T07:34:23.036Z,13.93
2018-11-06T07:36:51.629Z,14.00
2018-11-06T07:39:20.265Z,12.63
2018-11-06T07:41:48.878Z,12.37
2018-11-06T07:44:17.510Z,12.20
2018-11-06T07:46:46.161Z,12.53
2018-11-06T07:49:14.702Z,11.10
2018-11-06T07:51:43.271Z,11.63
2018-11-06T07:54:11.783Z,12.60
2018-11-06T07:56:40.326Z,12.73
2018-11-06T07:59:09.460Z,13.10
2018-11-06T08:01:38.327Z,13.40
2018-11-06T08:04:07.098Z,14.20
2018-11-06T08:06:35.591Z,13.47
2018-11-06T08:09:08.943Z,13.60
2018-11-06T08:11:39.286Z,12.97
2018-11-06T08:14:07.955Z,13.63
2018-11-06T08:16:36.619Z,13.37
2018-11-06T08:19:05.265Z,13.30
2018-11-06T08:21:33.879Z,12.57
2018-11-06T08:24:02.841Z,12.80
2018-11-06T08:26:31.530Z,12.40
2018-11-06T08:29:00.296Z,13.60
2018-11-06T08:31:29.535Z,13.03
2018-11-06T08:33:58.195Z,14.27
2018-11-06T08:36:26.997Z,13.50
2018-11-06T08:38:55.748Z,14.10
2018-11-06T08:41:24.491Z,13.97
2018-11-06T08:43:53.321Z,16.53
2018-11-06T08:46:22.060Z,14.93
2018-11-06T08:48:50.801Z,14.33
2018-11-06T08:51:19.590Z,15.60
2018-11-06T08:53:48.233Z,14.97
2018-11-06T08:56:16.845Z,14.43
2018-11-06T08:58:45.610Z,15.33
2018-11-06T09:01:14.509Z,15.18
2018-11-06T09:03:43.285Z,15.20
2018-11-06T09:06:11.857Z,14.53
2018-11-06T09:08:40.457Z,15.17
2018-11-06T09:11:09.049Z,14.40
2018-11-06T09:13:37.663Z,15.43
2018-11-06T09:16:06.783Z,16.07
2018-11-06T09:18:35.580Z,20.10
2018-11-06T09:21:04.073Z,14.63
2018-11-06T09:23:32.882Z,15.90
2018-11-06T09:26:01.411Z,15.10
2018-11-06T09:28:30.033Z,15.15
2018-11-06T09:30:58.682Z,14.67
2018-11-06T09:33:27.568Z,14.10
2018-11-06T09:35:56.154Z,14.43
2018-11-06T09:38:24.683Z,14.23
2018-11-06T09:40:53.327Z,14.83
2018-11-06T09:43:22.005Z,14.63
2018-11-06T09:45:50.565Z,13.68
2018-11-06T09:48:19.209Z,13.78
2018-11-06T09:50:47.763Z,13.43
2018-11-06T09:53:16.352Z,14.38
2018-11-06T09:55:45.023Z,14.23
2018-11-06T09:58:13.526Z,13.70
2018-11-06T10:00:42.045Z,13.35
2018-11-06T10:03:10.818Z,13.75
2018-11-06T10:05:39.409Z,14.20
2018-11-06T10:08:07.970Z,14.43
2018-11-06T10:10:36.550Z,14.78
2018-11-06T10:13:05.488Z,13.20
2018-11-06T10:15:34.088Z,13.95
2018-11-06T10:18:02.711Z,12.25
2018-11-06T10:20:31.415Z,13.30
2018-11-06T10:23:00.132Z,12.80
2018-11-06T10:25:28.782Z,13.30
2018-11-06T10:27:57.744Z,13.53
2018-11-06T10:30:26.383Z,13.13
2018-11-06T10:32:54.904Z,13.72
2018-11-06T10:35:23.559Z,12.13
2018-11-06T10:37:52.130Z,13.10
2018-11-06T10:40:22.705Z,14.35
2018-11-06T10:42:51.873Z,12.30
2018-11-06T10:45:21.157Z,12.45
2018-11-06T10:47:49.959Z,10.98
2018-11-06T10:50:19.389Z,11.95
2018-11-06T10:52:49.070Z,12.73
2018-11-06T10:55:17.827Z,11.60
2018-11-06T10:57:46.489Z,11.68
2018-11-06T11:00:20.395Z,10.70
2018-11-06T11:02:54.236Z,9.38
2018-11-06T11:05:24.708Z,9.03
2018-11-06T11:07:53.495Z,9.33
2018-11-06T11:10:22.112Z,7.28
2018-11-06T11:12:50.657Z,4.58
2018-11-06T11:15:19.302Z,4.47
2018-11-06T11:17:48.000Z,3.50
2018-11-06T11:20:17.569Z,4.15
2018-11-06T11:22:46.491Z,3.67
2018-11-06T11:25:16.692Z,3.00
2018-11-06T11:27:47.274Z,3.52
2018-11-06T11:30:17.214Z,3.17
2018-11-06T11:32:48.734Z,3.42
2018-11-06T11:35:18.251Z,3.52
2018-11-06T11:37:48.605Z,3.40
2018-11-06T11:40:18.446Z,3.12
2018-11-06T11:42:48.966Z,3.27
2018-11-06T11:45:19.126Z,3.50
2018-11-06T11:47:48.023Z,3.02
2018-11-06T11:50:17.314Z,3.40
2018-11-06T11:52:46.547Z,3.47
2018-11-06T11:55:15.850Z,3.58
2018-11-06T11:57:49.941Z,3.30
2018-11-06T12:00:20.512Z,3.80
2018-11-06T12:02:50.665Z,3.72
2018-11-06T12:05:23.274Z,4.12
2018-11-06T12:07:54.093Z,3.87
2018-11-06T12:10:22.658Z,3.95
2018-11-06T12:12:51.797Z,3.58
2018-11-06T12:15:20.588Z,4.10
2018-11-06T12:17:49.808Z,4.10
2018-11-06T12:20:18.566Z,4.07
2018-11-06T12:22:49.485Z,3.80
2018-11-06T12:25:18.492Z,3.87
2018-11-06T12:27:47.644Z,3.80
2018-11-06T12:30:17.701Z,7.73
2018-11-06T12:32:46.512Z,6.67
2018-11-06T12:35:15.563Z,3.60
2018-11-06T12:37:44.147Z,4.67
2018-11-06T12:40:13.487Z,4.30
2018-11-06T12:42:42.641Z,3.50
2018-11-06T12:45:12.584Z,3.80
2018-11-06T12:47:41.340Z,3.80
2018-11-06T12:50:14.248Z,4.30
2018-11-06T12:52:43.418Z,3.20
2018-11-06T12:55:13.176Z,3.30
2018-11-06T12:57:41.779Z,3.20
2018-11-06T13:00:17.096Z,3.00
2018-11-06T13:02:45.863Z,3.70
2018-11-06T13:05:14.932Z,3.10
2018-11-06T13:07:44.688Z,4.37
2018-11-06T13:10:14.163Z,3.10
2018-11-06T13:12:43.370Z,3.03
2018-11-06T13:15:12.267Z,3.37
2018-11-06T13:17:41.020Z,2.90
2018-11-06T13:20:12.014Z,2.80
2018-11-06T13:22:41.243Z,2.87
2018-11-06T13:25:09.997Z,3.10
2018-11-06T13:27:39.754Z,3.17
2018-11-06T13:30:11.617Z,2.90
2018-11-06T13:32:42.124Z,2.97
2018-11-06T13:35:11.322Z,3.20
2018-11-06T13:37:40.644Z,2.53
2018-11-06T13:40:11.943Z,2.80
2018-11-06T13:42:41.081Z,2.33
2018-11-06T13:45:13.538Z,2.63
2018-11-06T13:47:42.424Z,3.10
2018-11-06T13:50:11.032Z,2.87
2018-11-06T13:52:39.823Z,2.80
2018-11-06T13:55:10.176Z,2.57
2018-11-06T13:57:38.869Z,2.10
2018-11-06T14:00:14.334Z,2.53
2018-11-06T14:02:43.254Z,2.80
2018-11-06T14:05:12.254Z,2.83
2018-11-06T14:07:41.299Z,2.93
2018-11-06T14:10:10.139Z,2.77
2018-11-06T14:12:38.921Z,2.60
2018-11-06T14:15:07.730Z,2.73
2018-11-06T14:17:36.723Z,2.27
2018-11-06T14:20:06.389Z,2.47
2018-11-06T14:22:35.117Z,2.83
2018-11-06T14:25:03.902Z,2.60
2018-11-06T14:27:32.846Z,2.47
2018-11-06T14:30:01.625Z,3.10
2018-11-06T14:32:30.412Z,3.17
2018-11-06T14:34:59.206Z,2.70
2018-11-06T14:37:27.964Z,2.70
2018-11-06T14:39:57.133Z,2.70
2018-11-06T14:42:26.468Z,3.10
2018-11-06T14:44:55.079Z,2.10
2018-11-06T14:47:23.823Z,2.60
2018-11-06T14:49:52.616Z,2.80
2018-11-06T14:52:21.575Z,2.60
2018-11-06T14:54:50.325Z,2.87
2018-11-06T14:57:18.976Z,3.10
2018-11-06T14:59:47.483Z,3.40
2018-11-06T15:02:16.111Z,3.07
2018-11-06T15:04:44.851Z,2.70
2018-11-06T15:07:13.628Z,2.53
2018-11-06T15:09:42.266Z,3.30
2018-11-06T15:12:10.867Z,3.73
2018-11-06T15:14:39.798Z,3.13
2018-11-06T15:17:08.473Z,2.90
2018-11-06T15:19:37.224Z,2.90
2018-11-06T15:22:06.097Z,2.60
2018-11-06T15:24:34.769Z,2.73
2018-11-06T15:27:03.511Z,2.50
2018-11-06T15:29:32.403Z,3.30
2018-11-06T15:32:01.624Z,2.73
2018-11-06T15:34:30.188Z,2.60
2018-11-06T15:36:59.853Z,2.73
2018-11-06T15:39:28.480Z,2.77
2018-11-06T15:41:57.309Z,2.30
2018-11-06T15:44:25.870Z,2.17
2018-11-06T15:46:54.483Z,2.40
2018-11-06T15:49:23.086Z,2.63
2018-11-06T15:51:51.670Z,2.73
2018-11-06T15:54:20.277Z,2.60
2018-11-06T15:56:48.870Z,2.70
2018-11-06T15:59:17.497Z,2.90
2018-11-06T16:01:46.300Z,2.77
2018-11-06T16:04:21.208Z,2.73
2018-11-06T16:06:50.040Z,2.90
2018-11-06T16:09:18.640Z,3.87
2018-11-06T16:11:47.422Z,3.93
2018-11-06T16:14:16.195Z,3.23
2018-11-06T16:16:44.873Z,2.80
2018-11-06T16:19:14.096Z,3.93
2018-11-06T16:21:42.811Z,3.73
2018-11-06T16:24:11.472Z,3.60
2018-11-06T16:26:40.149Z,2.90
2018-11-06T16:29:08.787Z,3.63
2018-11-06T16:31:37.571Z,3.60
2018-11-06T16:34:06.339Z,3.77
2018-11-06T16:36:35.099Z,3.40
2018-11-06T16:39:04.650Z,3.87
2018-11-06T16:41:33.546Z,3.73
2018-11-06T16:44:02.527Z,2.80
2018-11-06T16:46:31.228Z,3.07
2018-11-06T16:48:59.948Z,3.40
2018-11-06T16:51:28.607Z,3.07
2018-11-06T16:53:57.319Z,2.43
2018-11-06T16:56:26.387Z,2.80
2018-11-06T16:58:55.501Z,2.93
2018-11-06T17:01:24.478Z,3.00
2018-11-06T17:03:53.477Z,2.67
2018-11-06T17:06:52.684Z,2.73
2018-11-06T17:09:21.944Z,3.60
2018-11-06T17:11:50.871Z,3.57
2018-11-06T17:14:19.465Z,2.83
2018-11-06T17:16:48.484Z,2.27
2018-11-06T17:19:17.842Z,2.70
2018-11-06T17:21:46.465Z,2.60
2018-11-06T17:24:15.216Z,2.70
2018-11-06T17:26:43.776Z,2.10
2018-11-06T17:29:12.437Z,3.07
2018-11-06T17:31:41.245Z,2.87
2018-11-06T17:34:10.083Z,3.03
2018-11-06T17:36:38.751Z,2.80
2018-11-06T17:39:15.271Z,2.80
2018-11-06T17:41:43.848Z,2.83
2018-11-06T17:44:12.431Z,3.37
2018-11-06T17:46:40.999Z,3.40
2018-11-06T17:49:09.992Z,3.60
2018-11-06T17:51:38.520Z,3.80
2018-11-06T17:54:07.232Z,3.70
2018-11-06T17:56:35.864Z,3.40
2018-11-06T17:59:04.473Z,4.03
2018-11-06T18:01:33.214Z,4.60
2018-11-06T18:04:04.941Z,3.77
2018-11-06T18:06:33.661Z,3.70
2018-11-06T18:09:02.348Z,4.10
2018-11-06T18:11:30.986Z,4.30
2018-11-06T18:14:02.483Z,3.90
2018-11-06T18:16:33.955Z,3.80
2018-11-06T18:19:23.652Z,3.50
2018-11-06T18:24:45.336Z,4.37
2018-11-06T18:30:13.447Z,4.17
2018-11-06T18:32:59.291Z,3.90
2018-11-06T18:35:27.973Z,3.90
2018-11-06T18:37:56.637Z,4.53
2018-11-06T18:40:25.290Z,4.50
2018-11-06T18:42:53.832Z,4.03
2018-11-06T18:45:22.544Z,4.17
2018-11-06T18:47:51.160Z,4.10
2018-11-06T18:50:21.039Z,5.03
2018-11-06T18:52:52.158Z,4.97
2018-11-06T18:55:20.898Z,3.93
2018-11-06T18:57:49.441Z,4.50
2018-11-06T19:00:19.205Z,5.00
2018-11-06T19:02:49.306Z,4.50
2018-11-06T19:05:18.373Z,4.83
2018-11-06T19:07:47.483Z,4.70
2018-11-06T19:10:17.170Z,5.20
2018-11-06T19:12:46.152Z,5.07
2018-11-06T19:15:17.679Z,5.53
2018-11-06T19:17:48.084Z,5.23
2018-11-06T19:20:16.817Z,5.53
2018-11-06T19:25:48.458Z,5.07
2018-11-06T19:28:38.307Z,5.73
2018-11-06T19:31:15.897Z,5.80
2018-11-06T19:33:45.656Z,6.20
2018-11-06T19:36:16.824Z,6.87
2018-11-06T19:38:46.135Z,6.47
2018-11-06T19:41:15.411Z,6.33
2018-11-06T19:43:45.240Z,6.23
2018-11-06T19:46:14.288Z,6.40
2018-11-06T19:48:43.582Z,6.27
2018-11-06T19:51:12.726Z,6.40
2018-11-06T19:53:41.467Z,6.67
2018-11-06T19:56:09.897Z,6.23
2018-11-06T19:58:38.478Z,6.67
2018-11-06T20:01:07.096Z,7.10
2018-11-06T20:03:35.673Z,7.20
2018-11-06T20:06:04.261Z,6.70
2018-11-06T20:08:32.850Z,6.53
2018-11-06T20:11:01.413Z,6.90
2018-11-06T20:13:29.952Z,11.77
2018-11-06T20:15:58.475Z,7.03
2018-11-06T20:18:27.177Z,6.63
2018-11-06T20:20:55.830Z,6.83
2018-11-06T20:23:24.462Z,7.10
2018-11-06T20:25:52.986Z,7.47
2018-11-06T20:28:21.596Z,7.23
2018-11-06T20:30:50.151Z,7.33
2018-11-06T20:33:18.815Z,7.40
2018-11-06T20:35:47.348Z,6.73
2018-11-06T20:38:16.071Z,7.10
2018-11-06T20:40:44.730Z,6.83
2018-11-06T20:43:13.452Z,7.13
2018-11-06T20:45:42.038Z,7.20
2018-11-06T20:48:10.679Z,7.13
2018-11-06T20:50:39.272Z,6.77
2018-11-06T20:53:08.028Z,5.90
2018-11-06T20:55:36.742Z,7.53
2018-11-06T20:58:05.287Z,7.30
2018-11-06T21:00:33.880Z,6.63
2018-11-06T21:03:03.300Z,7.27
2018-11-06T21:05:31.944Z,7.10
2018-11-06T21:08:00.677Z,6.83
2018-11-06T21:10:30.615Z,7.20
2018-11-06T21:13:00.243Z,7.03
2018-11-06T21:15:29.663Z,7.07
2018-11-06T21:17:58.338Z,7.50
2018-11-06T21:20:27.024Z,7.90
2018-11-06T21:22:55.654Z,7.30
2018-11-06T21:25:24.523Z,8.17
2018-11-06T21:27:53.101Z,7.43
2018-11-06T21:30:22.638Z,6.97
2018-11-06T21:32:52.682Z,8.10
2018-11-06T21:35:21.402Z,7.77
2018-11-06T21:37:50.053Z,7.67
2018-11-06T21:40:19.951Z,7.80
2018-11-06T21:42:48.957Z,8.53
2018-11-06T21:45:18.064Z,8.00
2018-11-06T21:47:47.551Z,8.20
2018-11-06T21:50:17.738Z,8.67
2018-11-06T21:52:46.352Z,8.10
2018-11-06T21:55:16.281Z,7.03
2018-11-06T21:57:44.968Z,7.37
2018-11-06T22:00:20.775Z,7.20
2018-11-06T22:02:49.459Z,6.80
2018-11-06T22:05:19.342Z,8.00
2018-11-06T22:07:48.194Z,7.63
2018-11-06T22:10:18.519Z,7.37
2018-11-06T22:12:47.412Z,7.77
2018-11-06T22:15:17.593Z,7.60
2018-11-06T22:17:46.251Z,8.03
2018-11-06T22:20:16.174Z,8.20
2018-11-06T22:22:45.259Z,8.43
2018-11-06T22:25:13.837Z,8.53
2018-11-06T22:27:42.607Z,7.67
2018-11-06T22:30:12.820Z,7.60
2018-11-06T22:32:42.111Z,8.17
2018-11-06T22:35:12.363Z,8.87
2018-11-06T22:37:40.891Z,7.80
2018-11-06T22:40:10.704Z,8.53
2018-11-06T22:42:39.587Z,8.40
2018-11-06T22:45:10.713Z,8.07
2018-11-06T22:47:39.281Z,8.53
2018-11-06T22:50:09.175Z,8.50
2018-11-06T22:52:37.693Z,9.07
2018-11-06T22:55:06.465Z,8.40
2018-11-06T22:57:35.166Z,7.50
2018-11-06T23:00:03.909Z,8.30
2018-11-06T23:02:32.537Z,8.60
2018-11-06T23:05:01.120Z,8.37
2018-11-06T23:07:34.893Z,7.80
2018-11-06T23:10:03.515Z,8.30
2018-11-06T23:12:32.038Z,8.10
2018-11-06T23:15:00.618Z,8.57
2018-11-06T23:17:29.210Z,8.00
2018-11-06T23:19:57.819Z,8.43
2018-11-06T23:22:26.589Z,8.10
2018-11-06T23:24:55.339Z,7.17
2018-11-06T23:27:23.815Z,7.57
2018-11-06T23:29:52.400Z,8.13
2018-11-06T23:32:20.978Z,7.50
2018-11-06T23:34:49.551Z,7.37
2018-11-06T23:37:18.121Z,7.80
2018-11-06T23:39:46.744Z,7.30
2018-11-06T23:42:15.300Z,7.40
2018-11-06T23:44:43.939Z,7.00
2018-11-06T23:47:12.529Z,7.37
2018-11-06T23:49:41.111Z,7.17
2018-11-06T23:52:09.739Z,7.63
2018-11-06T23:54:38.345Z,7.57
2018-11-06T23:57:06.943Z,7.33
2018-11-06T23:59:35.447Z,7.17
